createdAt,value
2022-09-01T00:00:49.288Z,58.96
2022-09-01T00:03:19.112Z,58.47
2022-09-01T00:05:51.022Z,58.83
2022-09-01T00:08:19.522Z,58.65
2022-09-01T00:10:49.468Z,58.57
2022-09-01T00:13:18.783Z,58.78
2022-09-01T00:15:47.370Z,58.54
2022-09-01T00:18:15.853Z,58.93
2022-09-01T00:20:44.398Z,58.64
2022-09-01T00:23:12.845Z,58.45
2022-09-01T00:25:41.254Z,58.96
2022-09-01T00:28:10.996Z,58.63
2022-09-01T00:30:39.342Z,58.93
2022-09-01T00:33:08.155Z,59.08
2022-09-01T00:35:37.067Z,58.72
2022-09-01T00:38:05.829Z,58.86
2022-09-01T00:40:34.587Z,58.51
2022-09-01T00:43:03.149Z,58.74
2022-09-01T00:45:33.359Z,58.81
2022-09-01T00:48:01.638Z,58.54
2022-09-01T00:50:29.980Z,58.60
2022-09-01T00:52:58.625Z,58.65
2022-09-01T00:55:32.581Z,58.93
2022-09-01T00:58:02.682Z,58.75
2022-09-01T01:00:41.938Z,59.10
2022-09-01T01:03:11.626Z,59.11
2022-09-01T01:05:54.029Z,59.01
2022-09-01T01:08:30.902Z,59.02
2022-09-01T01:10:59.261Z,59.14
2022-09-01T01:13:28.759Z,58.70
2022-09-01T01:15:59.621Z,58.68
2022-09-01T01:18:28.161Z,58.90
2022-09-01T01:21:21.669Z,58.91
2022-09-01T01:23:57.750Z,58.84
2022-09-01T01:26:27.421Z,58.96
2022-09-01T01:28:56.167Z,58.83
2022-09-01T01:31:24.759Z,58.71
2022-09-01T01:33:58.885Z,58.82
2022-09-01T01:36:32.651Z,58.95
2022-09-01T01:39:05.104Z,58.75
2022-09-01T01:41:40.943Z,58.48
2022-09-01T01:44:09.934Z,58.40
2022-09-01T01:46:42.972Z,58.76
2022-09-01T01:49:13.356Z,58.52
2022-09-01T01:51:42.318Z,58.60
2022-09-01T01:54:10.715Z,58.54
2022-09-01T01:56:41.894Z,58.72
2022-09-01T01:59:15.428Z,58.25
2022-09-01T02:01:51.298Z,58.43
2022-09-01T02:04:21.684Z,58.65
2022-09-01T02:06:52.045Z,58.67
2022-09-01T02:09:23.277Z,58.65
2022-09-01T02:11:57.352Z,58.41
2022-09-01T02:14:26.189Z,58.31
2022-09-01T02:16:56.146Z,58.14
2022-09-01T02:19:24.669Z,58.18
2022-09-01T02:21:56.102Z,58.46
2022-09-01T02:24:26.456Z,58.37
2022-09-01T02:26:59.217Z,58.42
2022-09-01T02:29:28.808Z,58.44
2022-09-01T02:31:58.358Z,58.63
2022-09-01T02:34:29.017Z,58.74
2022-09-01T02:36:58.619Z,58.57
2022-09-01T02:39:32.692Z,58.78
2022-09-01T02:42:02.832Z,58.44
2022-09-01T02:44:32.701Z,58.31
2022-09-01T02:47:02.076Z,58.05
2022-09-01T02:49:31.391Z,58.04
2022-09-01T02:52:01.501Z,58.47
2022-09-01T02:54:31.957Z,58.51
2022-09-01T02:57:04.020Z,58.50
2022-09-01T02:59:34.882Z,58.59
2022-09-01T03:02:03.301Z,58.51
2022-09-01T03:04:35.088Z,58.19
2022-09-01T03:07:04.486Z,58.46
2022-09-01T03:09:35.155Z,58.26
2022-09-01T03:14:35.569Z,58.53
2022-09-01T03:19:40.213Z,58.52
2022-09-01T03:22:08.793Z,58.17
2022-09-01T03:24:37.310Z,58.47
2022-09-01T03:27:07.471Z,58.52
2022-09-01T03:29:36.981Z,58.13
2022-09-01T03:32:06.053Z,58.50
2022-09-01T03:34:36.911Z,58.33
2022-09-01T03:37:10.963Z,58.18
2022-09-01T03:39:39.705Z,58.50
2022-09-01T03:42:12.358Z,58.30
2022-09-01T03:44:42.016Z,58.69
2022-09-01T03:47:15.249Z,58.20
2022-09-01T03:49:45.490Z,58.29
2022-09-01T03:52:14.746Z,58.26
2022-09-01T03:54:43.861Z,58.42
2022-09-01T03:57:13.970Z,58.38
2022-09-01T03:59:45.269Z,58.52
2022-09-01T04:02:15.129Z,58.16
2022-09-01T04:04:43.712Z,58.40
2022-09-01T04:07:19.385Z,58.24
2022-09-01T04:09:47.875Z,58.43
2022-09-01T04:12:17.564Z,58.25
2022-09-01T04:14:48.051Z,58.36
2022-09-01T04:17:33.739Z,58.06
2022-09-01T04:20:08.822Z,58.12
2022-09-01T04:22:38.427Z,58.22
2022-09-01T04:25:08.963Z,58.60
2022-09-01T04:27:40.461Z,58.36
2022-09-01T04:30:11.688Z,58.43
2022-09-01T04:32:41.641Z,58.50
2022-09-01T04:35:16.859Z,58.65
2022-09-01T04:37:47.593Z,58.43
2022-09-01T04:40:18.649Z,58.40
2022-09-01T04:42:48.501Z,58.27
2022-09-01T04:45:20.803Z,58.51
2022-09-01T04:47:49.347Z,58.72
2022-09-01T04:50:18.134Z,58.34
2022-09-01T04:52:47.821Z,58.45
2022-09-01T04:55:18.529Z,58.77
2022-09-01T04:57:50.349Z,58.40
2022-09-01T05:00:25.521Z,58.86
2022-09-01T05:02:57.403Z,58.75
2022-09-01T05:05:27.273Z,58.80
2022-09-01T05:07:55.642Z,58.68
2022-09-01T05:10:29.961Z,58.87
2022-09-01T05:13:00.226Z,58.64
2022-09-01T05:15:30.764Z,58.72
2022-09-01T05:18:02.333Z,58.68
2022-09-01T05:20:32.041Z,58.76
2022-09-01T05:23:01.880Z,58.94
2022-09-01T05:25:30.199Z,59.26
2022-09-01T05:27:59.889Z,59.23
2022-09-01T05:30:28.771Z,59.40
2022-09-01T05:32:57.175Z,59.20
2022-09-01T05:35:32.886Z,59.59
2022-09-01T05:38:02.522Z,59.50
2022-09-01T05:40:32.099Z,59.40
2022-09-01T05:43:02.706Z,59.25
2022-09-01T05:45:44.935Z,59.01
2022-09-01T05:48:23.677Z,58.91
2022-09-01T05:50:56.217Z,59.48
2022-09-01T05:53:26.943Z,59.19
2022-09-01T05:55:57.019Z,59.26
2022-09-01T05:59:22.592Z,59.83
2022-09-01T06:01:22.148Z,59.05
2022-09-01T06:03:54.797Z,58.94
2022-09-01T06:06:24.877Z,58.64
2022-09-01T06:08:58.881Z,59.14
2022-09-01T06:11:33.060Z,58.70
2022-09-01T06:14:03.247Z,58.72
2022-09-01T06:16:31.882Z,58.74
2022-09-01T06:19:00.667Z,58.91
2022-09-01T06:21:29.372Z,58.57
2022-09-01T06:23:59.351Z,58.00
2022-09-01T06:26:31.087Z,57.97
2022-09-01T06:29:04.791Z,58.18
2022-09-01T06:31:39.185Z,57.69
2022-09-01T06:34:17.730Z,58.20
2022-09-01T06:36:48.384Z,58.09
2022-09-01T06:39:20.701Z,58.45
2022-09-01T06:41:52.995Z,58.50
2022-09-01T06:44:23.468Z,58.69
2022-09-01T06:46:53.098Z,58.59
2022-09-01T06:49:23.673Z,58.81
2022-09-01T06:51:52.787Z,58.83
2022-09-01T06:54:21.715Z,58.85
2022-09-01T06:56:51.603Z,58.28
2022-09-01T06:59:23.363Z,58.20
2022-09-01T07:02:01.489Z,57.29
2022-09-01T07:04:31.549Z,56.56
2022-09-01T07:08:04.583Z,56.31
2022-09-01T07:10:06.339Z,56.00
2022-09-01T07:13:04.787Z,55.72
2022-09-01T07:16:32.162Z,55.35
2022-09-01T07:18:21.357Z,55.36
2022-09-01T07:21:35.664Z,55.55
2022-09-01T07:26:29.104Z,54.81
2022-09-01T07:29:01.966Z,54.26
2022-09-01T07:31:50.570Z,54.71
2022-09-01T07:45:33.368Z,53.60
2022-09-01T07:48:06.478Z,52.01
2022-09-01T07:51:34.740Z,51.65
2022-09-01T07:53:31.623Z,50.11
2022-09-01T07:56:09.538Z,50.11
2022-09-01T07:58:40.290Z,49.97
2022-09-01T08:01:10.028Z,50.25
2022-09-01T08:03:40.003Z,49.06
2022-09-01T08:06:11.453Z,48.63
2022-09-01T08:08:41.557Z,47.01
2022-09-01T08:11:10.282Z,47.43
2022-09-01T08:13:42.000Z,48.24
2022-09-01T08:16:19.548Z,47.20
2022-09-01T08:18:50.427Z,47.10
2022-09-01T08:21:22.214Z,44.59
2022-09-01T08:23:51.464Z,44.32
2022-09-01T08:26:22.318Z,44.58
2022-09-01T08:28:58.475Z,44.25
2022-09-01T08:31:30.653Z,44.26
2022-09-01T08:34:00.988Z,44.20
2022-09-01T08:36:29.248Z,43.48
2022-09-01T08:38:57.603Z,44.36
2022-09-01T08:41:40.884Z,44.30
2022-09-01T08:44:28.774Z,44.16
2022-09-01T08:47:02.897Z,44.05
2022-09-01T08:49:44.297Z,43.60
2022-09-01T08:52:25.636Z,43.04
2022-09-01T08:55:00.826Z,41.95
2022-09-01T08:57:34.933Z,37.97
2022-09-01T09:00:05.523Z,38.47
2022-09-01T09:02:53.941Z,39.09
2022-09-01T09:05:40.825Z,38.98
2022-09-01T09:08:40.585Z,39.94
2022-09-01T09:11:24.133Z,39.35
2022-09-01T09:14:07.230Z,39.59
2022-09-01T09:16:42.673Z,39.03
2022-09-01T09:19:18.227Z,38.47
2022-09-01T09:21:51.218Z,37.27
2022-09-01T09:24:47.243Z,38.02
2022-09-01T09:27:21.741Z,38.50
2022-09-01T09:29:53.461Z,39.32
2022-09-01T09:32:31.583Z,38.49
2022-09-01T09:35:23.437Z,37.89
2022-09-01T09:37:53.634Z,36.43
2022-09-01T09:40:25.442Z,37.58
2022-09-01T09:43:08.536Z,38.50
2022-09-01T09:45:41.988Z,37.85
2022-09-01T09:48:29.034Z,37.12
2022-09-01T09:50:57.573Z,37.06
2022-09-01T09:53:32.599Z,37.17
2022-09-01T09:56:05.288Z,36.16
2022-09-01T09:58:39.535Z,35.86
2022-09-01T10:01:16.282Z,34.76
2022-09-01T10:03:49.449Z,34.80
2022-09-01T10:06:34.523Z,35.14
2022-09-01T10:09:07.747Z,35.44
2022-09-01T10:11:41.558Z,35.10
2022-09-01T10:14:35.517Z,35.70
2022-09-01T10:17:15.735Z,35.77
2022-09-01T10:19:52.353Z,35.62
2022-09-01T10:22:21.734Z,35.21
2022-09-01T10:24:51.651Z,35.17
2022-09-01T10:27:25.270Z,36.45
2022-09-01T10:30:18.670Z,35.62
2022-09-01T10:32:55.826Z,35.96
2022-09-01T10:35:29.830Z,35.98
2022-09-01T10:38:00.502Z,36.23
2022-09-01T10:40:49.230Z,36.79
2022-09-01T10:43:36.333Z,37.09
2022-09-01T10:46:50.783Z,37.35
2022-09-01T10:50:07.723Z,37.50
2022-09-01T10:53:11.477Z,37.30
2022-09-01T10:55:48.424Z,37.47
2022-09-01T11:02:25.846Z,36.16
2022-09-01T11:05:16.934Z,36.63
2022-09-01T11:08:09.055Z,35.88
2022-09-01T11:10:50.090Z,35.95
2022-09-01T11:13:47.718Z,37.41
2022-09-01T11:16:52.386Z,34.65
2022-09-01T11:19:39.524Z,33.94
2022-09-01T11:22:25.953Z,34.34
2022-09-01T11:25:40.493Z,32.38
2022-09-01T11:28:47.656Z,32.84
2022-09-01T11:31:32.803Z,32.92
2022-09-01T11:34:15.000Z,30.96
2022-09-01T11:37:13.844Z,32.12
2022-09-01T11:39:47.916Z,31.46
2022-09-01T11:42:21.201Z,32.12
2022-09-01T11:44:58.799Z,31.61
2022-09-01T11:47:32.307Z,32.24
2022-09-01T11:50:03.900Z,30.87
2022-09-01T11:52:37.564Z,31.06
2022-09-01T11:55:08.565Z,30.52
2022-09-01T11:57:39.560Z,29.61
2022-09-01T12:00:12.893Z,29.88
2022-09-01T12:02:46.946Z,30.41
2022-09-01T12:05:32.646Z,30.29
2022-09-01T12:08:05.770Z,29.52
2022-09-01T12:10:37.671Z,29.79
2022-09-01T12:13:09.251Z,29.22
2022-09-01T12:16:00.390Z,29.03
2022-09-01T12:18:35.084Z,29.61
2022-09-01T12:21:07.899Z,30.03
2022-09-01T12:23:43.081Z,30.57
2022-09-01T12:26:15.150Z,30.42
2022-09-01T12:28:44.218Z,30.07
2022-09-01T12:31:18.995Z,29.73
2022-09-01T12:33:49.024Z,29.75
2022-09-01T12:36:24.944Z,30.64
2022-09-01T12:38:57.030Z,30.77
2022-09-01T12:41:38.949Z,30.35
2022-09-01T12:44:34.434Z,31.15
2022-09-01T12:47:06.830Z,31.05
2022-09-01T12:49:48.092Z,30.65
2022-09-01T12:52:27.154Z,30.76
2022-09-01T12:55:47.352Z,30.71
2022-09-01T12:58:06.274Z,30.34
2022-09-01T13:00:37.156Z,30.42
2022-09-01T13:03:14.503Z,30.47
2022-09-01T13:05:44.503Z,29.91
2022-09-01T13:08:15.820Z,30.20
2022-09-01T13:10:48.589Z,29.88
2022-09-01T13:13:18.364Z,29.81
2022-09-01T13:15:50.300Z,29.57
2022-09-01T13:18:19.530Z,29.90
2022-09-01T13:20:48.255Z,30.36
2022-09-01T13:23:17.596Z,30.04
2022-09-01T13:25:47.894Z,29.50
2022-09-01T13:28:18.139Z,30.15
2022-09-01T13:31:28.702Z,29.98
2022-09-01T13:39:20.386Z,29.32
2022-09-01T13:41:50.738Z,29.33
2022-09-01T13:44:19.563Z,29.15
2022-09-01T13:50:04.900Z,29.69
2022-09-01T13:52:24.731Z,30.19
2022-09-01T13:54:53.357Z,29.74
2022-09-01T13:57:23.104Z,28.81
2022-09-01T13:59:51.802Z,29.16
2022-09-01T14:02:20.450Z,30.35
2022-09-01T14:04:48.847Z,30.11
2022-09-01T14:07:18.889Z,29.62
2022-09-01T14:09:47.615Z,28.80
2022-09-01T14:12:15.958Z,28.34
2022-09-01T14:17:34.014Z,29.87
2022-09-01T14:20:02.640Z,28.45
2022-09-01T14:22:34.128Z,28.87
2022-09-01T14:25:05.580Z,28.90
2022-09-01T14:27:34.037Z,27.83
2022-09-01T14:30:04.117Z,28.43
2022-09-01T14:32:32.463Z,28.03
2022-09-01T14:35:01.725Z,28.44
2022-09-01T14:37:30.476Z,27.50
2022-09-01T14:39:59.743Z,26.16
2022-09-01T14:42:29.808Z,26.89
2022-09-01T14:44:58.440Z,27.58
2022-09-01T14:47:28.276Z,27.88
2022-09-01T14:49:57.274Z,27.45
2022-09-01T14:52:25.645Z,27.25
2022-09-01T14:54:54.059Z,27.38
2022-09-01T14:57:36.930Z,27.38
2022-09-01T15:00:12.416Z,27.15
2022-09-01T15:02:44.355Z,26.67
2022-09-01T15:05:14.062Z,26.55
2022-09-01T15:07:43.207Z,26.98
2022-09-01T15:10:16.157Z,27.55
2022-09-01T15:12:54.582Z,27.37
2022-09-01T15:15:23.675Z,27.27
2022-09-01T15:17:54.226Z,27.09
2022-09-01T15:20:41.088Z,27.23
2022-09-01T15:23:10.118Z,27.87
2022-09-01T15:25:38.683Z,27.92
2022-09-01T15:28:07.379Z,27.36
2022-09-01T15:30:36.991Z,27.62
2022-09-01T15:33:08.372Z,27.40
2022-09-01T15:35:39.609Z,28.03
2022-09-01T15:38:08.267Z,27.75
2022-09-01T15:40:40.208Z,28.37
2022-09-01T15:43:09.149Z,28.15
2022-09-01T15:45:37.715Z,28.19
2022-09-01T15:48:07.585Z,28.44
2022-09-01T15:50:36.026Z,28.37
2022-09-01T15:53:08.467Z,28.74
2022-09-01T15:55:42.306Z,28.66
2022-09-01T15:58:12.898Z,28.63
2022-09-01T16:00:43.165Z,28.91
2022-09-01T16:03:13.965Z,29.82
2022-09-01T16:05:42.739Z,29.75
2022-09-01T16:08:12.250Z,29.81
2022-09-01T16:10:42.311Z,30.31
2022-09-01T16:13:13.047Z,30.85
2022-09-01T16:15:48.269Z,30.84
2022-09-01T16:18:31.986Z,30.99
2022-09-01T16:21:09.952Z,30.96
2022-09-01T16:23:44.218Z,31.21
2022-09-01T16:26:12.891Z,30.59
2022-09-01T16:28:46.846Z,30.46
2022-09-01T16:31:21.280Z,30.49
2022-09-01T16:33:54.848Z,31.11
2022-09-01T16:36:38.545Z,31.36
2022-09-01T16:39:18.474Z,31.23
2022-09-01T16:41:58.711Z,31.00
2022-09-01T16:44:45.126Z,31.13
2022-09-01T16:47:35.886Z,31.14
2022-09-01T16:50:17.960Z,31.46
2022-09-01T16:53:09.939Z,31.38
2022-09-01T16:55:48.793Z,31.60
2022-09-01T16:58:24.013Z,31.99
2022-09-01T17:01:06.082Z,32.17
2022-09-01T17:03:43.035Z,32.21
2022-09-01T17:06:22.804Z,32.73
2022-09-01T17:08:55.409Z,32.55
2022-09-01T17:11:34.605Z,32.68
2022-09-01T17:14:04.501Z,32.99
2022-09-01T17:16:39.508Z,32.69
2022-09-01T17:19:12.996Z,32.61
2022-09-01T17:21:52.864Z,32.83
2022-09-01T17:24:35.191Z,32.84
2022-09-01T17:27:11.004Z,32.90
2022-09-01T17:29:44.942Z,33.07
2022-09-01T17:32:48.283Z,32.64
2022-09-01T17:35:24.980Z,32.62
2022-09-01T17:38:09.004Z,32.42
2022-09-01T17:40:58.366Z,32.94
2022-09-01T17:43:42.997Z,33.19
2022-09-01T17:46:20.498Z,33.48
2022-09-01T17:48:54.364Z,33.69
2022-09-01T17:51:30.651Z,34.00
2022-09-01T17:54:12.809Z,34.23
2022-09-01T17:56:52.784Z,34.28
2022-09-01T17:59:31.871Z,34.36
2022-09-01T18:02:19.146Z,34.69
2022-09-01T18:05:05.823Z,34.90
2022-09-01T18:07:56.986Z,34.77
2022-09-01T18:10:31.997Z,35.01
2022-09-01T18:13:07.414Z,35.02
2022-09-01T18:15:51.826Z,35.04
2022-09-01T18:18:36.417Z,35.19
2022-09-01T18:21:09.492Z,35.18
2022-09-01T18:23:40.911Z,35.32
2022-09-01T18:26:24.554Z,35.54
2022-09-01T18:28:55.743Z,35.79
2022-09-01T18:31:56.952Z,35.58
2022-09-01T18:34:39.298Z,35.59
2022-09-01T18:37:15.487Z,35.68
2022-09-01T18:39:53.411Z,35.85
2022-09-01T18:42:32.053Z,35.78
2022-09-01T18:45:09.605Z,35.97
2022-09-01T18:47:49.158Z,36.15
2022-09-01T18:50:25.118Z,36.07
2022-09-01T18:53:13.270Z,36.42
2022-09-01T18:55:52.724Z,36.71
2022-09-01T18:58:38.209Z,36.98
2022-09-01T19:01:09.608Z,36.78
2022-09-01T19:03:43.591Z,36.95
2022-09-01T19:06:28.497Z,37.16
2022-09-01T19:09:09.690Z,37.43
2022-09-01T19:11:59.748Z,37.13
2022-09-01T19:14:42.753Z,37.21
2022-09-01T19:17:57.524Z,37.26
2022-09-01T19:20:45.118Z,37.63
2022-09-01T19:23:21.905Z,38.02
2022-09-01T19:25:52.582Z,38.17
2022-09-01T19:28:26.881Z,38.32
2022-09-01T19:31:19.103Z,38.15
2022-09-01T19:33:52.071Z,38.57
2022-09-01T19:36:27.609Z,38.88
2022-09-01T19:38:58.471Z,38.99
2022-09-01T19:41:33.981Z,39.65
2022-09-01T19:44:14.269Z,39.75
2022-09-01T19:46:49.542Z,39.84
2022-09-01T19:49:29.906Z,40.13
2022-09-01T19:52:08.683Z,40.24
2022-09-01T19:54:47.603Z,40.35
2022-09-01T19:57:23.225Z,40.48
2022-09-01T19:59:59.611Z,40.99
2022-09-01T20:02:36.970Z,41.16
2022-09-01T20:05:14.464Z,41.02
2022-09-01T20:07:49.032Z,41.60
2022-09-01T20:10:51.615Z,41.07
2022-09-01T20:13:52.959Z,41.17
2022-09-01T20:16:31.853Z,41.21
2022-09-01T20:19:07.152Z,41.44
2022-09-01T20:21:39.919Z,41.88
2022-09-01T20:24:18.074Z,41.88
2022-09-01T20:26:57.638Z,41.74
2022-09-01T20:29:36.860Z,41.96
2022-09-01T20:32:05.973Z,42.49
2022-09-01T20:34:43.259Z,42.48
2022-09-01T20:37:21.152Z,42.60
2022-09-01T20:40:01.873Z,42.47
2022-09-01T20:42:42.180Z,42.67
2022-09-01T20:45:15.832Z,43.04
2022-09-01T20:47:51.382Z,43.24
2022-09-01T20:50:26.194Z,43.34
2022-09-01T20:53:18.841Z,43.05
2022-09-01T20:55:53.951Z,43.22
2022-09-01T20:58:33.325Z,43.46
2022-09-01T21:01:18.004Z,43.52
2022-09-01T21:04:05.884Z,43.50
2022-09-01T21:06:50.269Z,43.45
2022-09-01T21:09:30.035Z,43.97
2022-09-01T21:12:08.406Z,43.84
2022-09-01T21:14:50.903Z,44.13
2022-09-01T21:17:30.448Z,43.95
2022-09-01T21:20:10.008Z,44.16
2022-09-01T21:22:39.697Z,44.06
2022-09-01T21:25:08.524Z,44.52
2022-09-01T21:27:44.128Z,44.31
2022-09-01T21:30:15.605Z,44.74
2022-09-01T21:32:44.489Z,44.64
2022-09-01T21:35:21.190Z,44.68
2022-09-01T21:37:51.581Z,44.85
2022-09-01T21:40:23.435Z,44.94
2022-09-01T21:42:55.947Z,45.05
2022-09-01T21:45:25.112Z,44.91
2022-09-01T21:47:54.633Z,45.06
2022-09-01T21:50:25.636Z,45.00
2022-09-01T21:52:55.433Z,45.20
2022-09-01T21:55:24.839Z,45.12
2022-09-01T21:57:53.849Z,45.48
2022-09-01T22:00:26.833Z,45.65
2022-09-01T22:02:57.614Z,45.48
2022-09-01T22:05:26.310Z,45.70
2022-09-01T22:07:58.978Z,45.70
2022-09-01T22:10:32.264Z,45.91
2022-09-01T22:13:03.530Z,45.88
2022-09-01T22:15:32.711Z,46.17
2022-09-01T22:18:01.068Z,46.10
2022-09-01T22:20:31.956Z,46.43
2022-09-01T22:23:02.950Z,46.21
2022-09-01T22:25:34.270Z,46.32
2022-09-01T22:28:05.254Z,46.21
2022-09-01T22:30:34.660Z,46.44
2022-09-01T22:33:07.628Z,46.55
2022-09-01T22:35:36.267Z,46.42
2022-09-01T22:38:05.947Z,46.58
2022-09-01T22:40:34.341Z,46.86
2022-09-01T22:43:04.155Z,46.89
2022-09-01T22:45:32.474Z,46.97
2022-09-01T22:48:00.809Z,47.02
2022-09-01T22:50:29.157Z,47.14
2022-09-01T22:52:57.643Z,47.02
2022-09-01T22:55:28.153Z,47.14
2022-09-01T22:57:56.434Z,47.12
2022-09-01T23:00:24.778Z,47.02
2022-09-01T23:02:53.103Z,47.29
2022-09-01T23:05:23.173Z,47.30
2022-09-01T23:07:52.671Z,47.39
2022-09-01T23:10:21.326Z,47.36
2022-09-01T23:12:51.073Z,47.46
2022-09-01T23:15:19.611Z,47.41
2022-09-01T23:17:47.999Z,47.42
2022-09-01T23:20:16.623Z,47.54
2022-09-01T23:22:46.352Z,47.66
2022-09-01T23:25:16.903Z,47.62
2022-09-01T23:27:45.566Z,47.80
2022-09-01T23:30:16.895Z,47.75
2022-09-01T23:32:45.322Z,47.80
2022-09-01T23:35:14.011Z,47.76
2022-09-01T23:37:44.939Z,47.81
2022-09-01T23:40:14.219Z,47.98
2022-09-01T23:42:42.616Z,47.91
2022-09-01T23:45:12.446Z,48.07
2022-09-01T23:47:42.131Z,48.06
2022-09-01T23:50:11.518Z,48.22
2022-09-01T23:52:39.810Z,48.28
2022-09-01T23:55:09.590Z,48.29
2022-09-01T23:57:38.400Z,48.46
